Terminal Aerodrome Forecast
Issued by NWS

Home | Current Version | Previous Version | Text Only | Print | Product List | Glossary On
Versions: 1 2 3 4 5 6 7 8 9 10 11 12
000
FTUS45 KPSR 202300
TAFIPL
TAF
KIPL 202321Z 2100/2124 VRB04KT P6SM OVC250
     FM210400 25005KT P6SM BKN250
     FM211700 VRB05KT P6SM SCT250=

USA.gov is the U.S. government's official web portal to all federal, state and local government web resources and services.